createdAt,value
2023-04-02T00:00:34.998Z,12.45
2023-04-02T00:03:08.698Z,14.93
2023-04-02T00:05:51.624Z,14.25
2023-04-02T00:08:40.933Z,14.60
2023-04-02T00:11:09.080Z,17.88
2023-04-02T00:13:43.364Z,14.90
2023-04-02T00:16:13.564Z,13.30
2023-04-02T00:18:48.297Z,19.05
2023-04-02T00:21:38.880Z,19.48
2023-04-02T00:24:19.291Z,16.10
2023-04-02T00:26:48.490Z,14.65
2023-04-02T00:29:16.954Z,13.00
2023-04-02T00:31:47.408Z,16.17
2023-04-02T00:34:25.842Z,11.45
2023-04-02T00:36:53.454Z,15.18
2023-04-02T00:39:24.284Z,15.05
2023-04-02T00:42:06.385Z,17.30
2023-04-02T00:47:14.925Z,15.73
2023-04-02T00:49:43.114Z,19.45
2023-04-02T00:52:16.901Z,14.25
2023-04-02T00:54:52.855Z,16.23
2023-04-02T00:57:25.575Z,16.98
2023-04-02T01:00:12.010Z,14.68
2023-04-02T01:02:40.865Z,16.95
2023-04-02T01:05:16.594Z,18.10
2023-04-02T01:08:09.813Z,15.05
2023-04-02T01:10:48.242Z,13.45
2023-04-02T01:13:24.770Z,16.20
2023-04-02T01:16:17.274Z,17.52
2023-04-02T01:19:04.217Z,17.55
2023-04-02T01:21:42.609Z,14.15
2023-04-02T01:24:13.955Z,11.50
2023-04-02T01:26:57.863Z,15.25
2023-04-02T01:29:46.106Z,17.42
2023-04-02T01:32:16.871Z,12.80
2023-04-02T01:34:46.928Z,12.73
2023-04-02T01:37:27.604Z,14.70
2023-04-02T01:40:12.990Z,13.10
2023-04-02T01:42:59.245Z,13.80
2023-04-02T01:45:26.146Z,15.38
2023-04-02T01:47:53.118Z,13.55
2023-04-02T01:50:19.751Z,14.00
2023-04-02T01:52:52.511Z,10.45
2023-04-02T01:55:25.733Z,11.27
2023-04-02T01:57:54.316Z,10.50
2023-04-02T02:00:22.434Z,12.30
2023-04-02T02:02:51.745Z,15.93
2023-04-02T02:05:23.567Z,12.65
2023-04-02T02:07:52.154Z,16.42
2023-04-02T02:10:26.552Z,12.43
2023-04-02T02:12:53.801Z,17.02
2023-04-02T02:15:22.836Z,13.50
2023-04-02T02:17:51.002Z,15.95
2023-04-02T02:20:18.578Z,17.08
2023-04-02T02:22:51.167Z,13.77
2023-04-02T02:25:22.424Z,11.50
2023-04-02T02:28:06.764Z,17.27
2023-04-02T02:30:36.280Z,12.60
2023-04-02T02:33:30.606Z,12.18
2023-04-02T02:36:05.164Z,11.77
2023-04-02T02:38:34.981Z,10.50
2023-04-02T02:41:07.829Z,12.30
2023-04-02T02:43:37.114Z,10.35
2023-04-02T02:46:04.996Z,13.60
2023-04-02T02:48:38.334Z,16.52
2023-04-02T02:51:17.760Z,14.70
2023-04-02T02:53:50.580Z,13.40
2023-04-02T02:56:18.446Z,9.77
2023-04-02T02:58:45.215Z,12.20
2023-04-02T03:01:12.238Z,11.65
2023-04-02T03:03:40.572Z,6.25
2023-04-02T03:06:10.570Z,7.30
2023-04-02T03:08:47.091Z,8.63
2023-04-02T03:11:26.444Z,12.90
2023-04-02T03:13:57.232Z,11.23
2023-04-02T03:16:34.171Z,10.98
2023-04-02T03:19:19.015Z,10.07
2023-04-02T03:21:57.374Z,7.53
2023-04-02T03:24:33.043Z,10.27
2023-04-02T03:27:11.289Z,9.35
2023-04-02T03:29:43.930Z,10.50
2023-04-02T03:32:29.259Z,8.75
2023-04-02T03:35:01.439Z,10.30
2023-04-02T03:37:31.336Z,13.23
2023-04-02T03:40:00.682Z,12.10
2023-04-02T03:42:37.137Z,10.23
2023-04-02T03:45:19.934Z,8.35
2023-04-02T03:47:58.646Z,6.95
2023-04-02T03:50:31.684Z,11.48
2023-04-02T03:52:59.588Z,7.90
2023-04-02T03:55:30.119Z,8.50
2023-04-02T03:58:24.904Z,10.10
2023-04-02T04:01:17.494Z,10.82
2023-04-02T04:03:54.072Z,10.10
2023-04-02T04:06:41.543Z,10.43
2023-04-02T04:09:37.982Z,11.20
2023-04-02T04:12:31.954Z,12.13
2023-04-02T04:15:08.384Z,11.98
2023-04-02T04:17:53.998Z,8.52
2023-04-02T04:20:29.411Z,8.80
2023-04-02T04:23:08.743Z,11.27
2023-04-02T04:25:37.014Z,10.98
2023-04-02T04:28:29.162Z,10.02
2023-04-02T04:31:25.309Z,9.27
2023-04-02T04:34:03.024Z,8.18
2023-04-02T04:36:37.810Z,9.55
2023-04-02T04:39:34.851Z,8.25
2023-04-02T04:42:05.032Z,14.30
2023-04-02T04:44:49.910Z,7.68
2023-04-02T04:47:21.461Z,9.32
2023-04-02T04:49:58.089Z,7.93
2023-04-02T04:52:29.302Z,8.95
2023-04-02T04:54:56.368Z,8.40
2023-04-02T04:57:36.116Z,9.02
2023-04-02T05:00:15.668Z,9.43
2023-04-02T05:03:03.366Z,9.05
2023-04-02T05:05:33.683Z,8.75
2023-04-02T05:08:30.797Z,7.80
2023-04-02T05:11:05.884Z,7.70
2023-04-02T05:13:56.835Z,6.75
2023-04-02T05:16:31.468Z,6.57
2023-04-02T05:19:10.300Z,8.45
2023-04-02T05:21:50.687Z,7.65
2023-04-02T05:24:26.236Z,10.57
2023-04-02T05:26:57.130Z,7.13
2023-04-02T05:29:38.542Z,4.93
2023-04-02T05:32:16.031Z,5.93
2023-04-02T05:34:48.239Z,8.18
2023-04-02T05:37:21.434Z,7.18
2023-04-02T05:39:54.970Z,4.10
2023-04-02T05:42:25.272Z,6.25
2023-04-02T05:45:03.861Z,6.93
2023-04-02T05:47:32.571Z,9.50
2023-04-02T05:50:08.546Z,8.48
2023-04-02T05:52:42.023Z,7.03
2023-04-02T05:55:11.521Z,5.00
2023-04-02T05:57:56.846Z,5.35
2023-04-02T06:00:39.851Z,4.13
2023-04-02T06:03:34.482Z,6.82
2023-04-02T06:06:14.762Z,7.78
2023-04-02T06:08:49.058Z,6.90
2023-04-02T06:11:24.522Z,10.90
2023-04-02T06:13:51.181Z,7.70
2023-04-02T06:16:19.418Z,7.22
2023-04-02T06:18:46.265Z,4.63
2023-04-02T06:21:16.674Z,7.13
2023-04-02T06:23:58.483Z,6.05
2023-04-02T06:26:33.537Z,4.32
2023-04-02T06:29:07.109Z,6.22
2023-04-02T06:31:39.478Z,7.07
2023-04-02T06:34:13.834Z,5.15
2023-04-02T06:36:41.204Z,3.80
2023-04-02T06:39:15.617Z,5.78
2023-04-02T06:41:42.306Z,6.93
2023-04-02T06:44:21.895Z,7.47
2023-04-02T06:46:53.204Z,12.98
2023-04-02T06:49:29.225Z,6.13
2023-04-02T06:51:58.253Z,6.72
2023-04-02T06:54:24.868Z,6.85
2023-04-02T06:56:53.304Z,5.72
2023-04-02T06:59:20.630Z,6.88
2023-04-02T07:01:54.783Z,6.70
2023-04-02T07:04:22.127Z,9.23
2023-04-02T07:06:49.038Z,5.03
2023-04-02T07:09:15.900Z,9.48
2023-04-02T07:11:42.841Z,6.93
2023-04-02T07:14:12.865Z,8.18
2023-04-02T07:16:41.601Z,7.03
2023-04-02T07:19:17.521Z,7.85
2023-04-02T07:21:44.181Z,6.53
2023-04-02T07:24:10.815Z,6.13
2023-04-02T07:26:37.909Z,7.47
2023-04-02T07:29:07.789Z,7.20
2023-04-02T07:31:34.449Z,6.15
2023-04-02T07:34:01.487Z,5.53
2023-04-02T07:36:29.687Z,6.88
2023-04-02T07:38:56.438Z,7.18
2023-04-02T07:41:23.358Z,8.30
2023-04-02T07:43:50.142Z,5.10
2023-04-02T07:46:18.084Z,7.55
2023-04-02T07:48:45.572Z,4.43
2023-04-02T07:51:18.286Z,5.53
2023-04-02T07:53:45.100Z,4.53
2023-04-02T07:56:15.300Z,8.02
2023-04-02T07:58:42.405Z,6.97
2023-04-02T08:01:17.522Z,5.40
2023-04-02T08:03:44.521Z,5.47
2023-04-02T08:06:12.047Z,7.45
2023-04-02T08:08:39.091Z,8.68
2023-04-02T08:11:06.499Z,8.77
2023-04-02T08:13:33.343Z,3.83
2023-04-02T08:16:01.764Z,5.03
2023-04-02T08:18:30.518Z,4.97
2023-04-02T08:20:58.018Z,5.45
2023-04-02T08:23:25.761Z,5.20
2023-04-02T08:25:52.821Z,4.50
2023-04-02T08:28:21.213Z,6.07
2023-04-02T08:30:51.502Z,5.68
2023-04-02T08:33:18.827Z,4.95
2023-04-02T08:35:50.458Z,5.70
2023-04-02T08:38:19.344Z,18.38
2023-04-02T08:40:49.564Z,5.50
2023-04-02T08:43:33.394Z,7.22
2023-04-02T08:46:00.060Z,6.50
2023-04-02T08:48:27.960Z,8.52
2023-04-02T08:50:54.853Z,8.63
2023-04-02T08:53:25.027Z,8.30
2023-04-02T08:56:08.447Z,7.55
2023-04-02T08:58:42.249Z,5.90
2023-04-02T09:01:21.952Z,8.63
2023-04-02T09:03:51.885Z,4.88
2023-04-02T09:06:20.060Z,5.45
2023-04-02T09:08:49.699Z,7.75
2023-04-02T09:11:36.423Z,8.90
2023-04-02T09:14:12.891Z,7.43
2023-04-02T09:16:54.650Z,5.50
2023-04-02T09:19:32.515Z,3.97
2023-04-02T09:22:09.837Z,4.63
2023-04-02T09:24:37.791Z,4.03
2023-04-02T09:27:11.739Z,5.18
2023-04-02T09:29:45.371Z,7.15
2023-04-02T09:32:46.431Z,6.07
2023-04-02T09:35:39.062Z,7.95
2023-04-02T09:38:21.587Z,8.18
2023-04-02T09:41:04.770Z,5.25
2023-04-02T09:43:34.713Z,4.30
2023-04-02T09:46:04.550Z,7.05
2023-04-02T09:48:39.402Z,7.75
2023-04-02T09:51:16.478Z,2.85
2023-04-02T09:53:51.745Z,4.03
2023-04-02T09:56:20.058Z,4.47
2023-04-02T09:59:04.007Z,6.68
2023-04-02T10:01:32.087Z,4.93
2023-04-02T10:03:59.949Z,3.42
2023-04-02T10:06:29.309Z,4.35
2023-04-02T10:08:56.168Z,5.70
2023-04-02T10:11:43.658Z,3.45
2023-04-02T10:14:26.798Z,5.88
2023-04-02T10:17:00.633Z,5.30
2023-04-02T10:19:38.732Z,2.85
2023-04-02T10:22:12.868Z,5.18
2023-04-02T10:24:40.463Z,5.75
2023-04-02T10:27:17.580Z,5.20
2023-04-02T10:30:22.893Z,5.00
2023-04-02T10:33:27.400Z,3.30
2023-04-02T10:36:00.562Z,4.85
2023-04-02T10:38:42.497Z,4.70
2023-04-02T10:41:09.073Z,4.10
2023-04-02T10:44:20.170Z,3.47
2023-04-02T10:47:13.224Z,4.57
2023-04-02T10:49:47.258Z,5.32
2023-04-02T10:52:21.597Z,4.68
2023-04-02T10:54:50.242Z,5.55
2023-04-02T10:57:16.951Z,6.32
2023-04-02T10:59:49.314Z,5.28
2023-04-02T11:02:56.770Z,6.75
2023-04-02T11:05:29.359Z,2.97
2023-04-02T11:08:10.345Z,3.55
2023-04-02T11:10:40.706Z,4.32
2023-04-02T11:13:25.467Z,5.03
2023-04-02T11:15:53.750Z,3.95
2023-04-02T11:18:38.680Z,4.82
2023-04-02T11:21:24.853Z,2.40
2023-04-02T11:23:56.721Z,4.78
2023-04-02T11:29:21.471Z,4.13
2023-04-02T11:31:50.928Z,6.18
2023-04-02T11:34:53.840Z,3.63
2023-04-02T11:37:43.084Z,2.72
2023-04-02T11:40:13.888Z,4.05
2023-04-02T11:42:41.654Z,4.82
2023-04-02T11:45:21.108Z,3.85
2023-04-02T11:48:13.478Z,3.22
2023-04-02T11:50:42.736Z,4.63
2023-04-02T11:53:13.040Z,4.88
2023-04-02T11:56:04.729Z,4.05
2023-04-02T11:59:06.341Z,3.42
2023-04-02T12:01:59.284Z,5.75
2023-04-02T12:04:34.473Z,5.68
2023-04-02T12:07:34.704Z,5.10
2023-04-02T12:10:23.360Z,4.43
2023-04-02T12:12:51.648Z,5.40
2023-04-02T12:15:36.600Z,5.28
2023-04-02T12:18:11.724Z,5.50
2023-04-02T12:20:38.711Z,4.63
2023-04-02T12:23:05.687Z,4.35
2023-04-02T12:25:40.815Z,4.90
2023-04-02T12:28:17.756Z,7.10
2023-04-02T12:30:47.199Z,1.92
2023-04-02T12:33:20.157Z,2.80
2023-04-02T12:35:48.981Z,3.20
2023-04-02T12:38:23.958Z,4.05
2023-04-02T12:41:06.361Z,4.40
2023-04-02T12:43:35.229Z,4.07
2023-04-02T12:46:07.472Z,3.97
2023-04-02T12:48:35.942Z,2.85
2023-04-02T12:51:04.126Z,3.83
2023-04-02T12:53:40.040Z,4.78
2023-04-02T12:56:10.657Z,3.70
2023-04-02T12:58:38.550Z,2.92
2023-04-02T13:01:20.371Z,2.13
2023-04-02T13:04:03.142Z,3.35
2023-04-02T13:06:30.916Z,1.90
2023-04-02T13:08:57.764Z,3.92
2023-04-02T13:11:34.864Z,2.42
2023-04-02T13:14:02.986Z,6.05
2023-04-02T13:16:35.444Z,3.58
2023-04-02T13:19:17.128Z,5.03
2023-04-02T13:21:45.046Z,3.90
2023-04-02T13:24:23.194Z,5.10
2023-04-02T13:26:51.001Z,4.60
2023-04-02T13:29:26.524Z,2.22
2023-04-02T13:31:55.857Z,3.22
2023-04-02T13:34:22.658Z,5.57
2023-04-02T13:36:49.325Z,5.18
2023-04-02T13:39:16.133Z,4.28
2023-04-02T13:41:58.312Z,6.03
2023-04-02T13:44:30.707Z,3.88
2023-04-02T13:46:57.748Z,2.92
2023-04-02T13:49:25.245Z,3.55
2023-04-02T13:51:54.744Z,3.22
2023-04-02T13:54:38.586Z,3.72
2023-04-02T13:57:05.939Z,6.78
2023-04-02T13:59:32.709Z,5.22
2023-04-02T14:02:08.989Z,3.92
2023-04-02T14:04:40.615Z,6.53
2023-04-02T14:07:26.248Z,6.22
2023-04-02T14:10:06.325Z,3.65
2023-04-02T14:12:39.057Z,2.88
2023-04-02T14:15:16.398Z,3.60
2023-04-02T14:17:51.871Z,3.38
2023-04-02T14:21:12.743Z,3.65
2023-04-02T14:23:57.795Z,3.42
2023-04-02T14:26:43.778Z,3.88
2023-04-02T14:29:19.435Z,2.78
2023-04-02T14:32:10.638Z,5.78
2023-04-02T14:34:52.237Z,3.17
2023-04-02T14:37:36.900Z,3.15
2023-04-02T14:40:19.038Z,3.78
2023-04-02T14:43:09.221Z,3.35
2023-04-02T14:45:51.593Z,4.18
2023-04-02T14:48:32.829Z,2.85
2023-04-02T14:51:13.270Z,2.07
2023-04-02T14:53:58.788Z,2.97
2023-04-02T14:56:26.651Z,2.60
2023-04-02T14:59:28.461Z,4.13
2023-04-02T15:02:03.733Z,4.53
2023-04-02T15:04:42.679Z,2.72
2023-04-02T15:07:43.702Z,4.68
2023-04-02T15:10:31.547Z,3.72
2023-04-02T15:13:00.456Z,3.15
2023-04-02T15:15:46.645Z,3.35
2023-04-02T15:18:15.395Z,3.25
2023-04-02T15:21:06.416Z,3.13
2023-04-02T15:24:10.537Z,9.98
2023-04-02T15:27:23.822Z,1.23
2023-04-02T15:30:20.231Z,2.95
2023-04-02T15:32:47.260Z,6.38
2023-04-02T15:35:22.868Z,3.17
2023-04-02T15:37:59.847Z,2.80
2023-04-02T15:40:51.561Z,5.10
2023-04-02T15:43:36.818Z,4.07
2023-04-02T15:46:21.475Z,5.00
2023-04-02T15:49:33.474Z,2.45
2023-04-02T15:52:16.041Z,2.72
2023-04-02T15:55:18.752Z,2.38
2023-04-02T15:58:16.489Z,3.33
2023-04-02T16:01:21.894Z,3.78
2023-04-02T16:04:19.532Z,1.63
2023-04-02T16:06:58.428Z,4.10
2023-04-02T16:10:06.865Z,3.90
2023-04-02T16:12:35.189Z,3.83
2023-04-02T16:15:33.409Z,1.30
2023-04-02T16:18:12.405Z,2.72
2023-04-02T16:20:46.615Z,5.68
2023-04-02T16:23:17.539Z,1.33
2023-04-02T16:25:56.423Z,4.93
2023-04-02T16:28:44.774Z,4.85
2023-04-02T16:31:24.735Z,3.92
2023-04-02T16:34:02.519Z,4.03
2023-04-02T16:36:35.101Z,4.95
2023-04-02T16:39:16.356Z,3.17
2023-04-02T16:42:05.964Z,2.97
2023-04-02T16:44:58.639Z,8.00
2023-04-02T16:47:41.150Z,4.28
2023-04-02T16:50:55.361Z,2.60
2023-04-02T16:53:58.439Z,4.70
2023-04-02T16:57:07.203Z,2.95
2023-04-02T17:00:03.838Z,2.92
2023-04-02T17:02:42.844Z,3.88
2023-04-02T17:05:39.890Z,2.65
2023-04-02T17:08:25.238Z,2.85
2023-04-02T17:11:01.243Z,1.90
2023-04-02T17:13:51.439Z,5.75
2023-04-02T17:16:32.603Z,1.67
2023-04-02T17:19:00.878Z,4.80
2023-04-02T17:21:29.330Z,3.13
2023-04-02T17:24:11.014Z,4.07
2023-04-02T17:26:38.287Z,4.72
2023-04-02T17:29:09.607Z,2.47
2023-04-02T17:31:37.655Z,2.90
2023-04-02T17:34:13.737Z,4.30
2023-04-02T17:36:55.436Z,3.92
2023-04-02T17:39:36.495Z,2.63
2023-04-02T17:42:10.684Z,2.63
2023-04-02T17:45:00.346Z,3.50
2023-04-02T17:47:53.034Z,1.23
2023-04-02T17:50:44.206Z,2.85
2023-04-02T17:53:33.443Z,3.00
2023-04-02T17:56:38.340Z,3.83
2023-04-02T17:59:07.749Z,5.50
2023-04-02T18:01:54.974Z,1.98
2023-04-02T18:04:45.797Z,3.25
2023-04-02T18:07:37.274Z,4.82
2023-04-02T18:10:33.901Z,3.40
2023-04-02T18:13:12.575Z,4.30
2023-04-02T18:16:02.193Z,2.20
2023-04-02T18:18:43.476Z,1.77
2023-04-02T18:21:10.083Z,3.65
2023-04-02T18:23:48.622Z,2.85
2023-04-02T18:26:32.391Z,3.47
2023-04-02T18:29:18.336Z,7.28
2023-04-02T18:32:24.361Z,1.98
2023-04-02T18:35:08.756Z,6.03
2023-04-02T18:37:58.008Z,3.20
2023-04-02T18:40:47.651Z,3.85
2023-04-02T18:43:21.199Z,4.38
2023-04-02T18:46:11.628Z,2.20
2023-04-02T18:48:51.465Z,3.17
2023-04-02T18:51:24.165Z,3.53
2023-04-02T18:54:25.315Z,4.18
2023-04-02T18:56:52.129Z,3.80
2023-04-02T18:59:39.961Z,2.80
2023-04-02T19:02:47.268Z,2.70
2023-04-02T19:05:18.085Z,5.32
2023-04-02T19:07:48.008Z,6.05
2023-04-02T19:10:30.962Z,3.65
2023-04-02T19:12:57.640Z,4.63
2023-04-02T19:15:46.650Z,3.03
2023-04-02T19:18:49.558Z,5.28
2023-04-02T19:21:33.200Z,4.50
2023-04-02T19:24:36.284Z,3.97
2023-04-02T19:27:41.093Z,4.57
2023-04-02T19:30:45.483Z,3.28
2023-04-02T19:33:42.384Z,3.88
2023-04-02T19:36:27.665Z,6.07
2023-04-02T19:39:12.367Z,4.22
2023-04-02T19:42:06.039Z,3.33
2023-04-02T19:44:32.859Z,5.35
2023-04-02T19:46:59.618Z,3.63
2023-04-02T19:49:34.632Z,2.30
2023-04-02T19:52:01.373Z,2.83
2023-04-02T19:54:28.089Z,4.68
2023-04-02T19:56:54.751Z,3.15
2023-04-02T19:59:21.478Z,4.10
2023-04-02T20:01:48.120Z,4.55
2023-04-02T20:04:15.415Z,4.18
2023-04-02T20:06:42.252Z,3.60
2023-04-02T20:09:09.063Z,3.97
2023-04-02T20:11:38.155Z,4.60
2023-04-02T20:14:05.821Z,4.13
2023-04-02T20:16:33.869Z,2.85
2023-04-02T20:19:00.594Z,6.90
2023-04-02T20:21:27.596Z,5.93
2023-04-02T20:23:55.145Z,4.88
2023-04-02T20:26:22.644Z,2.83
2023-04-02T20:28:49.609Z,3.72
2023-04-02T20:31:18.168Z,2.80
2023-04-02T20:33:45.611Z,4.13
2023-04-02T20:36:14.869Z,2.25
2023-04-02T20:38:41.842Z,2.72
2023-04-02T20:41:09.111Z,1.92
2023-04-02T20:43:36.526Z,2.85
2023-04-02T20:46:08.355Z,1.98
2023-04-02T20:48:37.538Z,2.55
2023-04-02T20:51:06.190Z,6.00
2023-04-02T20:53:34.657Z,3.20
2023-04-02T20:56:12.791Z,2.22
2023-04-02T20:58:40.687Z,5.63
2023-04-02T21:01:18.918Z,2.55
2023-04-02T21:03:46.305Z,2.03
2023-04-02T21:06:15.437Z,3.08
2023-04-02T21:08:42.569Z,3.65
2023-04-02T21:11:09.913Z,2.50
2023-04-02T21:13:37.577Z,2.80
2023-04-02T21:16:15.979Z,2.30
2023-04-02T21:18:42.948Z,2.67
2023-04-02T21:21:13.434Z,2.17
2023-04-02T21:23:42.071Z,3.45
2023-04-02T21:26:11.893Z,2.00
2023-04-02T21:28:38.593Z,1.50
2023-04-02T21:31:11.978Z,1.75
2023-04-02T21:33:44.536Z,2.47
2023-04-02T21:36:13.658Z,1.98
2023-04-02T21:38:51.528Z,3.10
2023-04-02T21:41:29.356Z,2.90
2023-04-02T21:43:57.890Z,2.40
2023-04-02T21:46:28.038Z,2.95
2023-04-02T21:48:56.827Z,2.75
2023-04-02T21:51:25.940Z,3.75
2023-04-02T21:53:56.437Z,5.57
2023-04-02T21:56:35.559Z,2.20
2023-04-02T21:59:03.733Z,2.55
2023-04-02T22:01:32.650Z,2.97
2023-04-02T22:04:01.790Z,2.65
2023-04-02T22:06:30.828Z,2.13
2023-04-02T22:09:03.101Z,4.10
2023-04-02T22:11:35.720Z,1.17
2023-04-02T22:14:03.497Z,2.40
2023-04-02T22:16:31.879Z,2.63
2023-04-02T22:19:01.856Z,2.40
2023-04-02T22:21:29.830Z,2.90
2023-04-02T22:23:56.519Z,2.42
2023-04-02T22:26:23.922Z,1.75
2023-04-02T22:28:52.750Z,4.13
2023-04-02T22:31:22.370Z,2.67
2023-04-02T22:33:50.405Z,4.22
2023-04-02T22:36:18.842Z,3.35
2023-04-02T22:38:46.222Z,3.30
2023-04-02T22:41:16.152Z,2.05
2023-04-02T22:43:44.861Z,2.90
2023-04-02T22:46:13.785Z,3.15
2023-04-02T22:48:41.262Z,6.28
2023-04-02T22:51:09.392Z,3.03
2023-04-02T22:53:37.039Z,2.78
2023-04-02T22:56:07.533Z,1.73
2023-04-02T22:58:35.283Z,3.60
2023-04-02T23:01:07.347Z,4.63
2023-04-02T23:03:34.469Z,3.03
2023-04-02T23:06:03.284Z,2.67
2023-04-02T23:08:30.524Z,1.75
2023-04-02T23:11:21.938Z,2.33
2023-04-02T23:13:50.266Z,2.43
2023-04-02T23:16:17.828Z,2.75
2023-04-02T23:18:47.916Z,4.20
2023-04-02T23:21:15.878Z,2.92
2023-04-02T23:23:43.037Z,1.75
2023-04-02T23:26:30.818Z,5.65
2023-04-02T23:28:59.390Z,4.07
2023-04-02T23:31:26.784Z,3.42
2023-04-02T23:33:53.922Z,2.53
2023-04-02T23:36:26.287Z,4.55
2023-04-02T23:38:59.565Z,4.25
2023-04-02T23:41:27.644Z,4.68
2023-04-02T23:43:55.919Z,3.47
2023-04-02T23:46:23.639Z,3.70
2023-04-02T23:48:51.586Z,4.35
2023-04-02T23:51:19.025Z,3.47
2023-04-02T23:53:45.711Z,4.88
2023-04-02T23:56:12.364Z,5.72
2023-04-02T23:58:39.080Z,7.25
